CheckWX is a tool to help pilots better visualize weather data.  It is not intended as a substitute for an official pre-flight weather briefing.

07:19:03 UTC

LFOE METAR
Évreux-Fauville (BA 105) Air Base Airport
Évreux/Fauville, France
Current

19 mins ago

LFOE 180700Z AUTO 04012KT CAVOK 10/06 Q1026 NOSIG
Observed
Sep-18 @ 07:00 UTC
Wind
  • 040° at 12 KTS
Visibility
10,000+ meters
Flight Rules
VFR
Cloud Levels
  • Clear skies
Temperature
10°C / 50°F
Dewpoint
C / 43°F
Humidity
76%
Altimeter
30.3" Hg
Pressure
1025.92 hPa
Previous

49 mins ago

LFOE 180630Z AUTO 04010KT CAVOK 09/06 Q1026 NOSIG
Observed
Sep-18 @ 06:30 UTC
Wind
  • 040° at 10 KTS
Visibility
10,000+ meters
Flight Rules
VFR
Cloud Levels
  • Clear skies
Temperature
C / 48°F
Dewpoint
C / 43°F
Humidity
82%
Altimeter
30.3" Hg
Pressure
1025.92 hPa
Previous

1 hour ago

LFOE 180600Z AUTO 04009KT CAVOK 09/06 Q1026 NOSIG
Observed
Sep-18 @ 06:00 UTC
Wind
  • 040° at 9 KTS
Visibility
10,000+ meters
Flight Rules
VFR
Cloud Levels
  • Clear skies
Temperature
C / 48°F
Dewpoint
C / 43°F
Humidity
82%
Altimeter
30.3" Hg
Pressure
1025.92 hPa